createdAt,value
2022-10-05T00:01:58.685Z,68.40
2022-10-05T00:04:29.146Z,68.10
2022-10-05T00:07:02.120Z,68.20
2022-10-05T00:09:35.008Z,67.90
2022-10-05T00:12:14.328Z,67.90
2022-10-05T00:14:42.958Z,68.50
2022-10-05T00:17:17.955Z,67.70
2022-10-05T00:19:52.352Z,67.20
2022-10-05T00:22:22.599Z,66.90
2022-10-05T00:24:57.905Z,67.00
2022-10-05T00:27:27.691Z,67.90
2022-10-05T00:30:00.277Z,67.70
2022-10-05T00:32:28.724Z,68.50
2022-10-05T00:34:58.640Z,68.70
2022-10-05T00:37:26.752Z,70.00
2022-10-05T00:39:56.225Z,70.30
2022-10-05T00:42:38.316Z,71.10
2022-10-05T00:45:12.600Z,72.10
2022-10-05T00:47:50.659Z,71.30
2022-10-05T00:50:37.323Z,70.70
2022-10-05T00:53:12.804Z,70.40
2022-10-05T00:55:55.546Z,70.00
2022-10-05T00:58:32.042Z,71.30
2022-10-05T01:01:09.187Z,71.10
2022-10-05T01:03:50.957Z,71.00
2022-10-05T01:06:26.570Z,70.40
2022-10-05T01:09:03.941Z,70.40
2022-10-05T01:11:39.724Z,70.70
2022-10-05T01:14:16.977Z,70.70
2022-10-05T01:16:53.227Z,70.70
2022-10-05T01:20:01.789Z,69.70
2022-10-05T01:22:44.161Z,70.20
2022-10-05T01:25:23.938Z,70.30
2022-10-05T01:28:04.160Z,70.90
2022-10-05T01:30:39.135Z,71.50
2022-10-05T01:33:16.862Z,71.70
2022-10-05T01:35:55.190Z,72.00
2022-10-05T01:38:38.083Z,72.30
2022-10-05T01:41:22.267Z,72.50
2022-10-05T01:43:55.194Z,72.20
2022-10-05T01:46:30.318Z,72.10
2022-10-05T01:49:29.724Z,72.20
2022-10-05T01:52:08.357Z,72.40
2022-10-05T01:54:47.106Z,72.30
2022-10-05T01:57:27.438Z,72.30
2022-10-05T02:00:07.607Z,72.40
2022-10-05T02:02:39.656Z,72.30
2022-10-05T02:05:12.242Z,71.90
2022-10-05T02:07:44.964Z,72.40
2022-10-05T02:10:22.139Z,72.60
2022-10-05T02:12:55.668Z,73.40
2022-10-05T02:15:28.459Z,73.40
2022-10-05T02:18:03.405Z,74.00
2022-10-05T02:20:35.667Z,74.30
2022-10-05T02:23:08.974Z,74.20
2022-10-05T02:25:39.669Z,73.90
2022-10-05T02:28:12.667Z,73.60
2022-10-05T02:30:48.235Z,73.10
2022-10-05T02:33:22.668Z,73.70
2022-10-05T02:35:50.802Z,73.70
2022-10-05T02:38:27.630Z,73.40
2022-10-05T02:41:04.388Z,74.00
2022-10-05T02:43:43.851Z,73.70
2022-10-05T02:46:23.879Z,73.30
2022-10-05T02:49:11.652Z,73.00
2022-10-05T02:51:47.014Z,72.80
2022-10-05T02:54:22.940Z,72.70
2022-10-05T02:56:58.964Z,72.50
2022-10-05T02:59:34.499Z,72.10
2022-10-05T03:02:13.420Z,72.00
2022-10-05T03:04:49.770Z,72.20
2022-10-05T03:07:24.196Z,72.50
2022-10-05T03:10:01.612Z,72.90
2022-10-05T03:12:45.446Z,73.40
2022-10-05T03:15:28.872Z,73.90
2022-10-05T03:18:07.191Z,74.10
2022-10-05T03:20:42.327Z,74.10
2022-10-05T03:23:20.912Z,74.10
2022-10-05T03:26:07.177Z,74.40
2022-10-05T03:28:44.680Z,74.60
2022-10-05T03:31:21.587Z,74.30
2022-10-05T03:33:58.197Z,74.20
2022-10-05T03:36:34.076Z,74.60
2022-10-05T03:39:10.857Z,74.80
2022-10-05T03:41:48.401Z,74.90
2022-10-05T03:44:36.193Z,75.30
2022-10-05T03:47:13.555Z,75.60
2022-10-05T03:49:56.316Z,75.20
2022-10-05T03:52:29.545Z,75.50
2022-10-05T03:55:02.639Z,74.80
2022-10-05T03:57:34.370Z,74.80
2022-10-05T04:00:06.951Z,74.60
2022-10-05T04:02:38.080Z,74.60
2022-10-05T04:05:17.100Z,74.20
2022-10-05T04:07:48.647Z,74.60
2022-10-05T04:10:22.280Z,74.10
2022-10-05T04:12:56.069Z,74.20
2022-10-05T04:15:32.766Z,74.10
2022-10-05T04:18:06.292Z,74.50
2022-10-05T04:20:43.335Z,74.50
2022-10-05T04:23:19.544Z,74.90
2022-10-05T04:25:50.362Z,75.00
2022-10-05T04:28:31.078Z,75.00
2022-10-05T04:31:03.823Z,75.40
2022-10-05T04:33:33.564Z,75.50
2022-10-05T04:36:24.674Z,75.70
2022-10-05T04:39:06.825Z,76.50
2022-10-05T04:41:50.061Z,76.30
2022-10-05T04:44:34.619Z,76.60
2022-10-05T04:47:20.367Z,76.90
2022-10-05T04:50:06.235Z,77.40
2022-10-05T04:52:44.360Z,77.50
2022-10-05T04:55:22.563Z,77.10
2022-10-05T04:57:56.234Z,77.00
2022-10-05T05:00:26.644Z,76.60
2022-10-05T05:03:28.411Z,76.40
2022-10-05T05:06:16.893Z,77.40
2022-10-05T05:09:04.300Z,76.90
2022-10-05T05:11:42.862Z,77.30
2022-10-05T05:14:49.886Z,76.80
2022-10-05T05:17:32.197Z,77.50
2022-10-05T05:20:13.711Z,76.70
2022-10-05T05:22:48.805Z,76.50
2022-10-05T05:25:40.201Z,76.40
2022-10-05T05:28:24.395Z,77.00
2022-10-05T05:30:59.591Z,76.70
2022-10-05T05:33:37.119Z,76.30
2022-10-05T05:36:25.274Z,76.10
2022-10-05T05:39:02.741Z,76.60
2022-10-05T05:41:38.708Z,76.20
2022-10-05T05:44:20.574Z,76.00
2022-10-05T05:47:05.415Z,76.00
2022-10-05T05:49:49.107Z,76.00
2022-10-05T05:52:23.709Z,76.30
2022-10-05T05:54:58.066Z,75.80
2022-10-05T05:57:31.022Z,75.90
2022-10-05T06:00:06.271Z,76.10
2022-10-05T06:02:42.961Z,76.20
2022-10-05T06:05:28.571Z,76.60
2022-10-05T06:07:59.072Z,77.00
2022-10-05T06:10:33.763Z,76.20
2022-10-05T06:13:09.415Z,76.60
2022-10-05T06:15:42.901Z,76.80
2022-10-05T06:18:13.659Z,76.80
2022-10-05T06:20:45.503Z,76.80
2022-10-05T06:23:18.546Z,76.80
2022-10-05T06:26:07.074Z,77.10
2022-10-05T06:28:40.208Z,77.50
2022-10-05T06:31:29.661Z,76.90
2022-10-05T06:34:09.690Z,77.90
2022-10-05T06:36:45.547Z,77.50
2022-10-05T06:39:37.358Z,77.40
2022-10-05T06:42:28.345Z,77.70
2022-10-05T06:45:05.308Z,78.20
2022-10-05T06:47:39.206Z,77.70
2022-10-05T06:50:15.614Z,77.40
2022-10-05T06:53:04.046Z,77.50
2022-10-05T06:55:39.157Z,77.70
2022-10-05T06:58:22.039Z,77.20
2022-10-05T07:00:55.905Z,77.90
2022-10-05T07:03:28.922Z,77.50
2022-10-05T07:06:14.572Z,77.50
2022-10-05T07:08:55.465Z,77.70
2022-10-05T07:11:36.665Z,77.80
2022-10-05T07:14:16.244Z,77.70
2022-10-05T07:17:00.983Z,77.60
2022-10-05T07:19:38.048Z,77.50
2022-10-05T07:22:22.315Z,77.20
2022-10-05T07:25:02.040Z,77.40
2022-10-05T07:27:35.042Z,77.20
2022-10-05T07:30:06.801Z,76.70
2022-10-05T07:32:40.807Z,76.80
2022-10-05T07:35:32.898Z,77.20
2022-10-05T07:38:06.162Z,77.50
2022-10-05T07:40:40.159Z,77.20
2022-10-05T07:43:20.682Z,76.90
2022-10-05T07:45:53.780Z,77.20
2022-10-05T07:48:26.743Z,76.90
2022-10-05T07:51:00.995Z,76.90
2022-10-05T07:53:35.937Z,76.80
2022-10-05T07:56:10.788Z,76.60
2022-10-05T07:58:44.338Z,76.40
2022-10-05T08:01:19.331Z,76.40
2022-10-05T08:03:55.368Z,76.30
2022-10-05T08:06:35.932Z,76.40
2022-10-05T08:09:12.353Z,76.30
2022-10-05T08:11:50.776Z,76.00
2022-10-05T08:14:25.540Z,76.10
2022-10-05T08:16:57.695Z,75.90
2022-10-05T08:19:34.891Z,76.00
2022-10-05T08:22:09.772Z,76.40
2022-10-05T08:24:48.756Z,76.20
2022-10-05T08:27:24.715Z,76.50
2022-10-05T08:29:59.749Z,76.30
2022-10-05T08:32:31.833Z,76.40
2022-10-05T08:35:05.664Z,76.50
2022-10-05T08:37:37.015Z,76.50
2022-10-05T08:40:46.395Z,76.40
2022-10-05T08:43:35.569Z,76.80
2022-10-05T08:46:36.924Z,76.90
2022-10-05T08:49:22.823Z,77.00
2022-10-05T08:52:29.207Z,76.70
2022-10-05T08:55:29.453Z,77.00
2022-10-05T08:58:27.619Z,76.70
2022-10-05T09:01:03.320Z,76.70
2022-10-05T09:04:04.918Z,76.30
2022-10-05T09:06:53.172Z,76.60
2022-10-05T09:10:15.076Z,76.40
2022-10-05T09:13:09.831Z,76.50
2022-10-05T09:16:05.449Z,76.40
2022-10-05T09:19:06.292Z,76.50
2022-10-05T09:21:43.258Z,76.50
2022-10-05T09:24:27.167Z,76.20
2022-10-05T09:27:03.361Z,75.90
2022-10-05T09:30:11.490Z,75.80
2022-10-05T09:33:13.806Z,75.70
2022-10-05T09:36:13.599Z,75.70
2022-10-05T09:39:09.643Z,75.10
2022-10-05T09:42:14.514Z,74.90
2022-10-05T09:45:21.723Z,74.90
2022-10-05T09:48:13.090Z,74.80
2022-10-05T09:51:19.670Z,74.80
2022-10-05T09:54:23.233Z,74.90
2022-10-05T09:57:15.783Z,75.00
2022-10-05T10:00:09.565Z,75.20
2022-10-05T10:03:21.264Z,74.80
2022-10-05T10:06:16.606Z,74.00
2022-10-05T10:09:19.008Z,73.50
2022-10-05T10:12:04.495Z,72.60
2022-10-05T10:15:10.780Z,71.10
2022-10-05T10:17:58.508Z,70.20
2022-10-05T10:20:44.206Z,68.90
2022-10-05T10:23:27.980Z,67.80
2022-10-05T10:26:24.223Z,67.00
2022-10-05T10:29:18.139Z,66.80
2022-10-05T10:31:58.103Z,66.90
2022-10-05T10:34:51.903Z,66.80
2022-10-05T10:38:02.610Z,66.60
2022-10-05T10:40:39.567Z,66.60
2022-10-05T10:43:41.133Z,65.70
2022-10-05T10:46:19.887Z,64.40
2022-10-05T10:48:57.397Z,64.10
2022-10-05T10:52:07.385Z,63.30
2022-10-05T10:55:04.911Z,62.60
2022-10-05T10:57:48.891Z,61.90
2022-10-05T11:00:48.265Z,60.30
2022-10-05T11:03:46.895Z,60.10
2022-10-05T11:06:43.019Z,58.40
2022-10-05T11:09:45.582Z,58.10
2022-10-05T11:12:39.841Z,57.60
2022-10-05T11:15:37.867Z,56.90
2022-10-05T11:18:20.395Z,56.20
2022-10-05T11:21:24.009Z,56.00
2022-10-05T11:24:18.820Z,55.60
2022-10-05T11:27:18.653Z,58.60
2022-10-05T11:30:20.997Z,56.60
2022-10-05T11:33:29.554Z,54.20
2022-10-05T11:36:20.413Z,54.20
2022-10-05T11:39:17.504Z,53.30
2022-10-05T11:42:18.276Z,53.10
2022-10-05T11:45:26.561Z,54.10
2022-10-05T11:48:48.093Z,55.10
2022-10-05T11:51:41.257Z,56.30
2022-10-05T11:54:26.436Z,56.40
2022-10-05T11:57:00.171Z,56.60
2022-10-05T11:59:35.805Z,57.00
2022-10-05T12:02:22.293Z,56.70
2022-10-05T12:04:59.479Z,56.60
2022-10-05T12:07:35.615Z,56.00
2022-10-05T12:10:22.782Z,55.20
2022-10-05T12:13:19.068Z,54.40
2022-10-05T12:15:54.744Z,53.90
2022-10-05T12:18:50.001Z,53.20
2022-10-05T12:21:27.717Z,52.90
2022-10-05T12:24:01.439Z,51.80
2022-10-05T12:26:35.506Z,51.50
2022-10-05T12:29:13.200Z,51.10
2022-10-05T12:31:51.309Z,51.00
2022-10-05T12:34:29.180Z,50.80
2022-10-05T12:37:04.554Z,50.50
2022-10-05T12:39:40.416Z,50.50
2022-10-05T12:42:21.343Z,49.90
2022-10-05T12:45:04.955Z,49.60
2022-10-05T12:47:43.122Z,49.50
2022-10-05T12:50:22.104Z,49.10
2022-10-05T12:53:07.341Z,48.80
2022-10-05T12:55:43.569Z,48.30
2022-10-05T12:58:22.803Z,48.30
2022-10-05T13:00:57.370Z,48.20
2022-10-05T13:03:29.196Z,48.10
2022-10-05T13:06:11.006Z,48.00
2022-10-05T13:08:48.129Z,47.90
2022-10-05T13:11:22.504Z,47.80
2022-10-05T13:14:07.394Z,47.80
2022-10-05T13:16:40.771Z,47.30
2022-10-05T13:19:31.678Z,47.00
2022-10-05T13:22:23.925Z,46.60
2022-10-05T13:25:01.574Z,46.60
2022-10-05T13:27:32.932Z,46.80
2022-10-05T13:30:05.848Z,46.90
2022-10-05T13:32:37.445Z,47.50
2022-10-05T13:35:30.038Z,47.10
2022-10-05T13:38:08.211Z,46.90
2022-10-05T13:40:46.325Z,46.60
2022-10-05T13:43:24.172Z,46.30
2022-10-05T13:45:57.146Z,46.00
2022-10-05T13:48:46.446Z,45.90
2022-10-05T13:51:19.790Z,45.70
2022-10-05T13:53:56.042Z,45.70
2022-10-05T13:56:30.497Z,45.80
2022-10-05T13:59:12.766Z,45.70
2022-10-05T14:01:47.570Z,45.90
2022-10-05T14:04:19.777Z,46.10
2022-10-05T14:06:49.264Z,46.40
2022-10-05T14:09:31.385Z,46.50
2022-10-05T14:12:15.669Z,46.20
2022-10-05T14:14:49.731Z,46.50
2022-10-05T14:17:32.840Z,46.20
2022-10-05T14:20:04.186Z,46.50
2022-10-05T14:22:42.728Z,46.80
2022-10-05T14:25:18.294Z,46.70
2022-10-05T14:28:04.544Z,46.30
2022-10-05T14:30:33.772Z,46.70
2022-10-05T14:33:15.594Z,46.60
2022-10-05T14:35:50.164Z,46.30
2022-10-05T14:38:21.966Z,46.10
2022-10-05T14:41:13.408Z,46.00
2022-10-05T14:43:51.844Z,46.10
2022-10-05T14:46:28.290Z,46.00
2022-10-05T14:49:22.754Z,45.90
2022-10-05T14:51:51.714Z,45.70
2022-10-05T14:54:35.249Z,45.70
2022-10-05T14:57:18.082Z,45.30
2022-10-05T15:00:03.930Z,45.30
2022-10-05T15:03:06.173Z,45.40
2022-10-05T15:05:39.272Z,45.20
2022-10-05T15:08:24.302Z,45.30
2022-10-05T15:11:01.571Z,45.30
2022-10-05T15:13:33.960Z,45.50
2022-10-05T15:16:06.943Z,45.30
2022-10-05T15:18:38.042Z,45.50
2022-10-05T15:21:26.406Z,47.20
2022-10-05T15:23:58.510Z,45.70
2022-10-05T15:26:36.962Z,45.70
2022-10-05T15:29:19.584Z,45.50
2022-10-05T15:31:59.340Z,45.20
2022-10-05T15:34:33.719Z,45.30
2022-10-05T15:37:12.471Z,45.00
2022-10-05T15:39:48.753Z,44.80
2022-10-05T15:42:20.771Z,45.00
2022-10-05T15:45:05.408Z,45.20
2022-10-05T15:47:48.187Z,45.20
2022-10-05T15:50:23.533Z,45.00
2022-10-05T15:52:57.332Z,45.10
2022-10-05T15:55:36.513Z,45.30
2022-10-05T15:58:31.508Z,45.60
2022-10-05T16:01:11.391Z,46.00
2022-10-05T16:03:50.209Z,46.00
2022-10-05T16:06:47.132Z,46.30
2022-10-05T16:09:34.692Z,46.80
2022-10-05T16:15:07.139Z,47.80
2022-10-05T16:17:55.997Z,48.40
2022-10-05T16:20:36.851Z,49.30
2022-10-05T16:23:11.702Z,49.90
2022-10-05T16:25:53.526Z,50.40
2022-10-05T16:33:06.487Z,51.60
2022-10-05T16:35:46.782Z,52.10
2022-10-05T16:38:26.997Z,52.40
2022-10-05T16:41:20.936Z,52.80
2022-10-05T16:44:04.968Z,53.10
2022-10-05T16:46:40.756Z,53.40
2022-10-05T16:49:58.715Z,53.60
2022-10-05T16:52:29.199Z,54.10
2022-10-05T16:55:02.438Z,54.10
2022-10-05T16:57:31.680Z,54.40
2022-10-05T17:00:21.963Z,53.60
2022-10-05T17:03:08.679Z,55.00
2022-10-05T17:05:59.040Z,55.30
2022-10-05T17:09:02.601Z,55.60
2022-10-05T17:11:43.677Z,56.00
2022-10-05T17:14:43.003Z,56.10
2022-10-05T17:17:41.287Z,56.40
2022-10-05T17:20:41.617Z,56.70
2022-10-05T17:23:30.291Z,57.10
2022-10-05T17:26:05.481Z,57.10
2022-10-05T17:28:58.420Z,57.00
2022-10-05T17:31:26.870Z,57.60
2022-10-05T17:34:29.142Z,57.10
2022-10-05T17:36:59.800Z,57.80
2022-10-05T17:39:47.079Z,57.70
2022-10-05T17:42:46.429Z,58.40
2022-10-05T17:45:50.744Z,58.40
2022-10-05T17:48:39.439Z,58.70
2022-10-05T17:51:57.720Z,58.70
2022-10-05T17:54:47.162Z,58.80
2022-10-05T17:57:25.502Z,58.40
2022-10-05T18:00:02.435Z,59.10
2022-10-05T18:02:43.880Z,59.30
2022-10-05T18:05:31.399Z,59.60
2022-10-05T18:08:31.768Z,59.70
2022-10-05T18:11:17.127Z,59.80
2022-10-05T18:13:50.099Z,59.80
2022-10-05T18:16:52.008Z,59.60
2022-10-05T18:19:22.804Z,60.10
2022-10-05T18:22:27.745Z,59.70
2022-10-05T18:25:05.821Z,60.40
2022-10-05T18:28:05.503Z,60.30
2022-10-05T18:30:44.717Z,60.60
2022-10-05T18:33:49.325Z,60.50
2022-10-05T18:36:39.933Z,60.80
2022-10-05T18:39:27.628Z,60.80
2022-10-05T18:42:11.711Z,60.60
2022-10-05T18:44:43.151Z,60.60
2022-10-05T18:47:19.250Z,60.50
2022-10-05T18:50:06.112Z,60.90
2022-10-05T18:52:49.316Z,61.20
2022-10-05T18:56:11.554Z,61.00
2022-10-05T18:58:54.588Z,60.90
2022-10-05T19:01:49.286Z,60.90
2022-10-05T19:04:27.292Z,60.90
2022-10-05T19:07:06.155Z,60.70
2022-10-05T19:09:56.392Z,60.70
2022-10-05T19:12:41.375Z,60.80
2022-10-05T19:15:20.368Z,60.60
2022-10-05T19:18:18.596Z,60.60
2022-10-05T19:20:55.183Z,60.80
2022-10-05T19:23:39.961Z,60.50
2022-10-05T19:26:15.358Z,60.60
2022-10-05T19:28:57.176Z,60.60
2022-10-05T19:31:34.899Z,60.70
2022-10-05T19:34:24.157Z,60.70
2022-10-05T19:37:00.322Z,60.80
2022-10-05T19:39:37.975Z,61.50
2022-10-05T19:42:44.626Z,60.90
2022-10-05T19:45:22.844Z,61.10
2022-10-05T19:48:18.024Z,60.80
2022-10-05T19:50:55.192Z,61.10
2022-10-05T19:53:29.375Z,61.00
2022-10-05T19:56:10.547Z,60.90
2022-10-05T19:58:41.035Z,60.70
2022-10-05T20:01:11.313Z,60.90
2022-10-05T20:03:41.058Z,60.70
2022-10-05T20:06:11.543Z,60.80
2022-10-05T20:08:41.867Z,60.80
2022-10-05T20:11:13.196Z,60.90
2022-10-05T20:13:42.988Z,61.00
2022-10-05T20:16:45.642Z,61.00
2022-10-05T20:19:49.936Z,61.30
2022-10-05T20:22:24.388Z,61.40
2022-10-05T20:24:54.109Z,60.50
2022-10-05T20:27:45.259Z,60.70
2022-10-05T20:30:15.976Z,61.30
2022-10-05T20:32:45.591Z,61.00
2022-10-05T20:35:16.495Z,61.00
2022-10-05T20:37:44.775Z,61.10
2022-10-05T20:40:14.874Z,61.00
2022-10-05T20:42:42.967Z,61.10
2022-10-05T20:45:12.374Z,61.20
2022-10-05T20:47:40.853Z,61.50
2022-10-05T20:50:10.883Z,61.50
2022-10-05T20:52:40.494Z,61.90
2022-10-05T20:55:11.420Z,62.00
2022-10-05T20:57:42.184Z,62.00
2022-10-05T21:00:12.296Z,61.90
2022-10-05T21:02:40.733Z,61.90
2022-10-05T21:05:09.855Z,62.00
2022-10-05T21:07:38.020Z,62.10
2022-10-05T21:10:08.491Z,62.20
2022-10-05T21:12:36.619Z,62.50
2022-10-05T21:15:05.724Z,62.50
2022-10-05T21:17:35.186Z,62.70
2022-10-05T21:20:03.470Z,62.80
2022-10-05T21:22:31.790Z,63.10
2022-10-05T21:25:00.251Z,63.40
2022-10-05T21:27:31.079Z,63.60
2022-10-05T21:29:59.164Z,63.90
2022-10-05T21:32:27.248Z,63.90
2022-10-05T21:34:55.285Z,64.00
2022-10-05T21:37:23.345Z,64.00
2022-10-05T21:40:08.516Z,64.10
2022-10-05T21:42:38.159Z,64.90
2022-10-05T21:45:07.278Z,64.50
2022-10-05T21:47:36.072Z,64.40
2022-10-05T21:50:05.264Z,64.60
2022-10-05T21:52:34.696Z,64.80
2022-10-05T21:55:03.729Z,64.90
2022-10-05T21:57:31.988Z,65.10
2022-10-05T22:00:01.761Z,65.20
2022-10-05T22:02:29.843Z,65.60
2022-10-05T22:04:58.396Z,65.50
2022-10-05T22:07:26.439Z,65.50
2022-10-05T22:09:54.490Z,65.60
2022-10-05T22:12:23.591Z,65.60
2022-10-05T22:14:51.704Z,65.70
2022-10-05T22:17:24.950Z,65.70
2022-10-05T22:19:53.106Z,66.00
2022-10-05T22:22:21.291Z,65.60
2022-10-05T22:24:49.432Z,65.50
2022-10-05T22:27:18.022Z,65.40
2022-10-05T22:29:46.083Z,65.30
2022-10-05T22:32:14.188Z,65.00
2022-10-05T22:34:43.664Z,64.90
2022-10-05T22:37:13.507Z,64.80
2022-10-05T22:39:42.050Z,64.60
2022-10-05T22:42:10.787Z,64.50
2022-10-05T22:44:39.051Z,64.40
2022-10-05T22:47:07.435Z,64.10
2022-10-05T22:49:35.540Z,63.90
2022-10-05T22:52:05.040Z,63.90
2022-10-05T22:54:37.107Z,63.70
2022-10-05T22:57:05.469Z,63.60
2022-10-05T22:59:33.570Z,64.10
2022-10-05T23:02:01.892Z,63.30
2022-10-05T23:04:30.142Z,63.10
2022-10-05T23:06:58.239Z,63.10
2022-10-05T23:09:27.814Z,63.00
2022-10-05T23:11:55.951Z,63.00
2022-10-05T23:14:50.761Z,62.90
2022-10-05T23:17:21.366Z,62.80
2022-10-05T23:19:49.817Z,62.70
2022-10-05T23:22:17.910Z,62.60
2022-10-05T23:24:58.234Z,62.60
2022-10-05T23:27:26.322Z,62.40
2022-10-05T23:29:54.442Z,62.20
2022-10-05T23:32:22.502Z,62.10
2022-10-05T23:34:50.540Z,62.00
2022-10-05T23:37:22.567Z,62.00
2022-10-05T23:39:51.992Z,62.00
2022-10-05T23:42:20.298Z,62.00
2022-10-05T23:44:48.436Z,61.90
2022-10-05T23:47:16.514Z,61.90
2022-10-05T23:49:44.618Z,61.90
2022-10-05T23:52:13.969Z,61.90
2022-10-05T23:54:42.096Z,61.90
2022-10-05T23:57:11.546Z,62.00
2022-10-05T23:59:39.582Z,62.10
